sensor_id;sensor_type;location;lat;lon;timestamp;temperature;humidity
14670;DHT22;7423;48.722;9.350;2023-07-28T00:00:45;20.80;99.90
14670;DHT22;7423;48.722;9.350;2023-07-28T00:03:12;20.80;99.90
14670;DHT22;7423;48.722;9.350;2023-07-28T00:05:39;20.80;99.90
14670;DHT22;7423;48.722;9.350;2023-07-28T00:08:06;20.80;99.90
14670;DHT22;7423;48.722;9.350;2023-07-28T00:10:33;20.80;99.90
14670;DHT22;7423;48.722;9.350;2023-07-28T00:13:00;20.70;99.90
14670;DHT22;7423;48.722;9.350;2023-07-28T00:15:28;20.70;99.90
14670;DHT22;7423;48.722;9.350;2023-07-28T00:17:55;20.70;99.90
14670;DHT22;7423;48.722;9.350;2023-07-28T00:20:22;20.60;99.90
14670;DHT22;7423;48.722;9.350;2023-07-28T00:22:49;20.60;99.90
14670;DHT22;7423;48.722;9.350;2023-07-28T00:25:16;20.60;99.90
14670;DHT22;7423;48.722;9.350;2023-07-28T00:27:43;20.60;99.90
14670;DHT22;7423;48.722;9.350;2023-07-28T00:30:11;20.50;99.90
14670;DHT22;7423;48.722;9.350;2023-07-28T00:32:38;20.50;99.90
14670;DHT22;7423;48.722;9.350;2023-07-28T00:35:05;20.40;99.90
14670;DHT22;7423;48.722;9.350;2023-07-28T00:37:32;20.40;99.90
14670;DHT22;7423;48.722;9.350;2023-07-28T00:39:59;20.40;99.90
14670;DHT22;7423;48.722;9.350;2023-07-28T00:42:26;20.30;99.90
14670;DHT22;7423;48.722;9.350;2023-07-28T00:44:53;20.40;99.90
14670;DHT22;7423;48.722;9.350;2023-07-28T00:47:19;20.40;99.90
14670;DHT22;7423;48.722;9.350;2023-07-28T00:49:47;20.40;99.90
14670;DHT22;7423;48.722;9.350;2023-07-28T00:52:14;20.40;99.90
14670;DHT22;7423;48.722;9.350;2023-07-28T00:54:40;20.40;99.90
14670;DHT22;7423;48.722;9.350;2023-07-28T00:57:07;20.40;99.90
14670;DHT22;7423;48.722;9.350;2023-07-28T00:59:34;20.40;99.90
14670;DHT22;7423;48.722;9.350;2023-07-28T01:02:01;20.40;99.90
14670;DHT22;7423;48.722;9.350;2023-07-28T01:04:29;20.30;99.90
14670;DHT22;7423;48.722;9.350;2023-07-28T01:10:06;20.30;99.90
14670;DHT22;7423;48.722;9.350;2023-07-28T01:12:36;20.30;99.90
14670;DHT22;7423;48.722;9.350;2023-07-28T01:15:03;20.30;99.90
14670;DHT22;7423;48.722;9.350;2023-07-28T01:17:30;20.30;99.90
14670;DHT22;7423;48.722;9.350;2023-07-28T01:19:57;20.30;99.90
14670;DHT22;7423;48.722;9.350;2023-07-28T01:28:27;20.30;99.90
14670;DHT22;7423;48.722;9.350;2023-07-28T01:30:57;20.30;99.90
14670;DHT22;7423;48.722;9.350;2023-07-28T01:33:24;20.20;99.90
14670;DHT22;7423;48.722;9.350;2023-07-28T01:35:50;20.20;99.90
14670;DHT22;7423;48.722;9.350;2023-07-28T01:38:17;20.20;99.90
14670;DHT22;7423;48.722;9.350;2023-07-28T01:40:44;20.20;99.90
14670;DHT22;7423;48.722;9.350;2023-07-28T01:43:11;20.20;99.90
14670;DHT22;7423;48.722;9.350;2023-07-28T01:45:38;20.20;99.90
14670;DHT22;7423;48.722;9.350;2023-07-28T01:48:05;20.20;99.90
14670;DHT22;7423;48.722;9.350;2023-07-28T01:50:32;20.20;99.90
14670;DHT22;7423;48.722;9.350;2023-07-28T01:52:59;20.20;99.90
14670;DHT22;7423;48.722;9.350;2023-07-28T01:55:27;20.10;99.90
14670;DHT22;7423;48.722;9.350;2023-07-28T01:57:58;20.10;99.90
14670;DHT22;7423;48.722;9.350;2023-07-28T02:00:26;20.10;99.90
14670;DHT22;7423;48.722;9.350;2023-07-28T02:02:54;20.10;99.90
14670;DHT22;7423;48.722;9.350;2023-07-28T02:05:21;20.00;99.90
14670;DHT22;7423;48.722;9.350;2023-07-28T02:07:48;20.00;99.90
14670;DHT22;7423;48.722;9.350;2023-07-28T02:10:15;20.00;99.90
14670;DHT22;7423;48.722;9.350;2023-07-28T02:12:42;20.00;99.90
14670;DHT22;7423;48.722;9.350;2023-07-28T02:15:09;20.00;99.90
14670;DHT22;7423;48.722;9.350;2023-07-28T02:17:36;20.00;99.90
14670;DHT22;7423;48.722;9.350;2023-07-28T02:20:04;20.00;99.90
14670;DHT22;7423;48.722;9.350;2023-07-28T02:22:31;20.00;99.90
14670;DHT22;7423;48.722;9.350;2023-07-28T02:24:58;20.00;99.90
14670;DHT22;7423;48.722;9.350;2023-07-28T02:27:28;20.10;99.90
14670;DHT22;7423;48.722;9.350;2023-07-28T02:29:55;20.10;99.90
14670;DHT22;7423;48.722;9.350;2023-07-28T02:32:22;20.00;99.90
14670;DHT22;7423;48.722;9.350;2023-07-28T02:34:50;20.00;99.90
14670;DHT22;7423;48.722;9.350;2023-07-28T02:37:16;20.00;99.90
14670;DHT22;7423;48.722;9.350;2023-07-28T02:39:43;20.00;99.90
14670;DHT22;7423;48.722;9.350;2023-07-28T02:42:11;19.90;99.90
14670;DHT22;7423;48.722;9.350;2023-07-28T02:44:38;19.90;99.90
14670;DHT22;7423;48.722;9.350;2023-07-28T02:47:06;19.90;99.90
14670;DHT22;7423;48.722;9.350;2023-07-28T02:49:32;19.90;99.90
14670;DHT22;7423;48.722;9.350;2023-07-28T02:51:59;19.90;99.90
14670;DHT22;7423;48.722;9.350;2023-07-28T02:54:26;19.90;99.90
14670;DHT22;7423;48.722;9.350;2023-07-28T02:56:53;19.90;99.90
14670;DHT22;7423;48.722;9.350;2023-07-28T02:59:21;19.90;99.90
14670;DHT22;7423;48.722;9.350;2023-07-28T03:01:49;19.80;99.90
14670;DHT22;7423;48.722;9.350;2023-07-28T03:04:19;19.80;99.90
14670;DHT22;7423;48.722;9.350;2023-07-28T03:06:46;19.80;99.90
14670;DHT22;7423;48.722;9.350;2023-07-28T03:09:14;19.80;99.90
14670;DHT22;7423;48.722;9.350;2023-07-28T03:11:44;19.80;99.90
14670;DHT22;7423;48.722;9.350;2023-07-28T03:14:11;19.80;99.90
14670;DHT22;7423;48.722;9.350;2023-07-28T03:16:41;19.70;99.90
14670;DHT22;7423;48.722;9.350;2023-07-28T03:19:08;19.70;99.90
14670;DHT22;7423;48.722;9.350;2023-07-28T03:21:35;19.70;99.90
14670;DHT22;7423;48.722;9.350;2023-07-28T03:24:05;19.70;99.90
14670;DHT22;7423;48.722;9.350;2023-07-28T03:26:32;19.70;99.90
14670;DHT22;7423;48.722;9.350;2023-07-28T03:28:59;19.70;99.90
14670;DHT22;7423;48.722;9.350;2023-07-28T03:31:26;19.90;99.90
14670;DHT22;7423;48.722;9.350;2023-07-28T03:33:53;19.80;99.90
14670;DHT22;7423;48.722;9.350;2023-07-28T03:36:20;19.80;99.90
14670;DHT22;7423;48.722;9.350;2023-07-28T03:38:47;19.70;99.90
14670;DHT22;7423;48.722;9.350;2023-07-28T03:41:14;19.70;99.90
14670;DHT22;7423;48.722;9.350;2023-07-28T03:43:41;19.70;99.90
14670;DHT22;7423;48.722;9.350;2023-07-28T03:46:08;19.70;99.90
14670;DHT22;7423;48.722;9.350;2023-07-28T03:48:35;19.70;99.90
14670;DHT22;7423;48.722;9.350;2023-07-28T03:51:02;19.70;99.90
14670;DHT22;7423;48.722;9.350;2023-07-28T03:53:29;19.70;99.90
14670;DHT22;7423;48.722;9.350;2023-07-28T03:55:56;19.70;99.90
14670;DHT22;7423;48.722;9.350;2023-07-28T03:58:25;19.60;99.90
14670;DHT22;7423;48.722;9.350;2023-07-28T04:00:52;19.60;99.90
14670;DHT22;7423;48.722;9.350;2023-07-28T04:03:20;19.60;99.90
14670;DHT22;7423;48.722;9.350;2023-07-28T04:05:47;19.60;99.90
14670;DHT22;7423;48.722;9.350;2023-07-28T04:08:14;19.60;99.90
14670;DHT22;7423;48.722;9.350;2023-07-28T04:10:41;19.60;99.90
14670;DHT22;7423;48.722;9.350;2023-07-28T04:13:08;19.70;99.90
14670;DHT22;7423;48.722;9.350;2023-07-28T04:15:35;19.60;99.90
14670;DHT22;7423;48.722;9.350;2023-07-28T04:18:02;19.70;99.90
14670;DHT22;7423;48.722;9.350;2023-07-28T04:20:29;19.80;99.90
14670;DHT22;7423;48.722;9.350;2023-07-28T04:22:56;19.80;99.90
14670;DHT22;7423;48.722;9.350;2023-07-28T04:25:23;19.90;99.90
14670;DHT22;7423;48.722;9.350;2023-07-28T04:27:50;19.90;99.90
14670;DHT22;7423;48.722;9.350;2023-07-28T04:30:17;19.90;99.90
14670;DHT22;7423;48.722;9.350;2023-07-28T04:32:44;19.80;99.90
14670;DHT22;7423;48.722;9.350;2023-07-28T04:35:11;19.80;99.90
14670;DHT22;7423;48.722;9.350;2023-07-28T04:37:37;19.90;99.90
14670;DHT22;7423;48.722;9.350;2023-07-28T04:40:05;19.90;99.90
14670;DHT22;7423;48.722;9.350;2023-07-28T04:42:32;19.80;99.90
14670;DHT22;7423;48.722;9.350;2023-07-28T04:44:59;19.80;99.90
14670;DHT22;7423;48.722;9.350;2023-07-28T04:47:26;19.90;99.90
14670;DHT22;7423;48.722;9.350;2023-07-28T04:49:52;19.80;99.90
14670;DHT22;7423;48.722;9.350;2023-07-28T04:52:19;19.90;99.90
14670;DHT22;7423;48.722;9.350;2023-07-28T04:54:46;19.90;99.90
14670;DHT22;7423;48.722;9.350;2023-07-28T04:57:13;19.90;99.90
14670;DHT22;7423;48.722;9.350;2023-07-28T04:59:42;19.90;99.90
14670;DHT22;7423;48.722;9.350;2023-07-28T05:02:09;19.90;99.90
14670;DHT22;7423;48.722;9.350;2023-07-28T05:04:36;19.90;99.90
14670;DHT22;7423;48.722;9.350;2023-07-28T05:07:04;19.90;99.90
14670;DHT22;7423;48.722;9.350;2023-07-28T05:09:31;19.90;99.90
14670;DHT22;7423;48.722;9.350;2023-07-28T05:11:58;20.00;99.90
14670;DHT22;7423;48.722;9.350;2023-07-28T05:14:25;20.20;99.90
14670;DHT22;7423;48.722;9.350;2023-07-28T05:16:51;20.10;99.90
14670;DHT22;7423;48.722;9.350;2023-07-28T05:19:18;20.00;99.90
14670;DHT22;7423;48.722;9.350;2023-07-28T05:21:45;20.00;99.90
14670;DHT22;7423;48.722;9.350;2023-07-28T05:24:12;20.00;99.90
14670;DHT22;7423;48.722;9.350;2023-07-28T05:26:39;20.00;99.90
14670;DHT22;7423;48.722;9.350;2023-07-28T05:29:06;20.10;99.90
14670;DHT22;7423;48.722;9.350;2023-07-28T05:31:33;20.00;99.90
14670;DHT22;7423;48.722;9.350;2023-07-28T05:34:00;20.00;99.90
14670;DHT22;7423;48.722;9.350;2023-07-28T05:36:27;20.00;99.90
14670;DHT22;7423;48.722;9.350;2023-07-28T05:38:55;20.00;99.90
14670;DHT22;7423;48.722;9.350;2023-07-28T05:41:23;20.00;99.90
14670;DHT22;7423;48.722;9.350;2023-07-28T05:43:50;20.10;99.90
14670;DHT22;7423;48.722;9.350;2023-07-28T05:46:17;20.00;99.90
14670;DHT22;7423;48.722;9.350;2023-07-28T05:48:47;20.10;99.90
14670;DHT22;7423;48.722;9.350;2023-07-28T05:51:14;20.20;99.90
14670;DHT22;7423;48.722;9.350;2023-07-28T05:53:41;20.20;99.90
14670;DHT22;7423;48.722;9.350;2023-07-28T05:56:08;20.20;99.90
14670;DHT22;7423;48.722;9.350;2023-07-28T05:58:35;20.20;99.90
14670;DHT22;7423;48.722;9.350;2023-07-28T06:01:02;20.20;99.90
14670;DHT22;7423;48.722;9.350;2023-07-28T06:03:29;20.20;99.90
14670;DHT22;7423;48.722;9.350;2023-07-28T06:05:56;20.20;99.90
14670;DHT22;7423;48.722;9.350;2023-07-28T06:08:23;20.20;99.90
14670;DHT22;7423;48.722;9.350;2023-07-28T06:10:50;20.20;99.90
14670;DHT22;7423;48.722;9.350;2023-07-28T06:13:17;20.20;99.90
14670;DHT22;7423;48.722;9.350;2023-07-28T06:15:44;20.30;99.90
14670;DHT22;7423;48.722;9.350;2023-07-28T06:18:11;20.30;99.90
14670;DHT22;7423;48.722;9.350;2023-07-28T06:20:42;20.30;99.90
14670;DHT22;7423;48.722;9.350;2023-07-28T06:23:10;20.40;99.90
14670;DHT22;7423;48.722;9.350;2023-07-28T06:25:37;20.40;99.90
14670;DHT22;7423;48.722;9.350;2023-07-28T06:28:11;20.40;99.90
14670;DHT22;7423;48.722;9.350;2023-07-28T06:30:39;20.30;99.90
14670;DHT22;7423;48.722;9.350;2023-07-28T06:33:08;20.40;99.90
14670;DHT22;7423;48.722;9.350;2023-07-28T06:35:45;20.30;99.90
14670;DHT22;7423;48.722;9.350;2023-07-28T06:38:13;20.30;99.90
14670;DHT22;7423;48.722;9.350;2023-07-28T06:40:41;20.40;99.90
14670;DHT22;7423;48.722;9.350;2023-07-28T06:43:08;20.40;99.90
14670;DHT22;7423;48.722;9.350;2023-07-28T06:45:36;20.40;99.90
14670;DHT22;7423;48.722;9.350;2023-07-28T06:48:03;20.40;99.90
14670;DHT22;7423;48.722;9.350;2023-07-28T06:50:30;20.40;99.90
14670;DHT22;7423;48.722;9.350;2023-07-28T06:52:58;20.40;99.90
14670;DHT22;7423;48.722;9.350;2023-07-28T06:55:25;20.50;99.90
14670;DHT22;7423;48.722;9.350;2023-07-28T06:57:52;20.50;99.90
14670;DHT22;7423;48.722;9.350;2023-07-28T07:00:19;20.50;99.90
14670;DHT22;7423;48.722;9.350;2023-07-28T07:02:46;20.60;99.90
14670;DHT22;7423;48.722;9.350;2023-07-28T07:05:13;20.50;99.90
14670;DHT22;7423;48.722;9.350;2023-07-28T07:07:40;20.60;99.90
14670;DHT22;7423;48.722;9.350;2023-07-28T07:10:08;20.60;99.90
14670;DHT22;7423;48.722;9.350;2023-07-28T07:12:36;20.60;99.90
14670;DHT22;7423;48.722;9.350;2023-07-28T07:15:03;20.70;99.90
14670;DHT22;7423;48.722;9.350;2023-07-28T07:17:31;20.60;99.90
14670;DHT22;7423;48.722;9.350;2023-07-28T07:19:58;20.70;99.90
14670;DHT22;7423;48.722;9.350;2023-07-28T07:22:25;20.70;99.90
14670;DHT22;7423;48.722;9.350;2023-07-28T07:24:52;20.70;99.90
14670;DHT22;7423;48.722;9.350;2023-07-28T07:27:19;20.70;99.90
14670;DHT22;7423;48.722;9.350;2023-07-28T07:29:46;20.70;99.90
14670;DHT22;7423;48.722;9.350;2023-07-28T07:32:13;20.70;99.90
14670;DHT22;7423;48.722;9.350;2023-07-28T07:34:42;20.80;99.90
14670;DHT22;7423;48.722;9.350;2023-07-28T07:37:09;20.80;99.90
14670;DHT22;7423;48.722;9.350;2023-07-28T07:39:36;20.80;99.90
14670;DHT22;7423;48.722;9.350;2023-07-28T07:42:03;20.80;99.90
14670;DHT22;7423;48.722;9.350;2023-07-28T07:44:31;20.80;99.90
14670;DHT22;7423;48.722;9.350;2023-07-28T07:47:00;20.90;99.90
14670;DHT22;7423;48.722;9.350;2023-07-28T07:49:27;20.90;99.90
14670;DHT22;7423;48.722;9.350;2023-07-28T07:51:54;20.90;99.90
14670;DHT22;7423;48.722;9.350;2023-07-28T07:54:21;20.90;99.90
14670;DHT22;7423;48.722;9.350;2023-07-28T07:56:48;21.00;99.90
14670;DHT22;7423;48.722;9.350;2023-07-28T07:59:15;20.90;99.90
14670;DHT22;7423;48.722;9.350;2023-07-28T08:01:42;21.00;99.90
14670;DHT22;7423;48.722;9.350;2023-07-28T08:04:09;21.00;99.90
14670;DHT22;7423;48.722;9.350;2023-07-28T08:06:37;21.00;99.90
14670;DHT22;7423;48.722;9.350;2023-07-28T08:09:04;21.10;99.90
14670;DHT22;7423;48.722;9.350;2023-07-28T08:11:31;21.00;99.90
14670;DHT22;7423;48.722;9.350;2023-07-28T08:13:58;21.00;99.90
14670;DHT22;7423;48.722;9.350;2023-07-28T08:16:25;21.10;99.90
14670;DHT22;7423;48.722;9.350;2023-07-28T08:18:52;21.10;99.90
14670;DHT22;7423;48.722;9.350;2023-07-28T08:21:19;21.10;99.90
14670;DHT22;7423;48.722;9.350;2023-07-28T08:23:46;21.10;99.90
14670;DHT22;7423;48.722;9.350;2023-07-28T08:26:13;21.10;99.90
14670;DHT22;7423;48.722;9.350;2023-07-28T08:28:40;21.10;99.90
14670;DHT22;7423;48.722;9.350;2023-07-28T08:31:07;21.10;99.90
14670;DHT22;7423;48.722;9.350;2023-07-28T08:33:34;21.20;99.90
14670;DHT22;7423;48.722;9.350;2023-07-28T08:36:01;21.20;99.90
14670;DHT22;7423;48.722;9.350;2023-07-28T08:38:30;21.20;99.90
14670;DHT22;7423;48.722;9.350;2023-07-28T08:40:57;21.20;99.90
14670;DHT22;7423;48.722;9.350;2023-07-28T08:43:25;21.20;99.90
14670;DHT22;7423;48.722;9.350;2023-07-28T08:45:53;21.20;99.90
14670;DHT22;7423;48.722;9.350;2023-07-28T08:48:21;21.30;99.90
14670;DHT22;7423;48.722;9.350;2023-07-28T08:50:49;21.30;99.90
14670;DHT22;7423;48.722;9.350;2023-07-28T08:53:17;21.30;99.90
14670;DHT22;7423;48.722;9.350;2023-07-28T08:55:43;21.30;99.90
14670;DHT22;7423;48.722;9.350;2023-07-28T08:58:29;21.30;99.90
14670;DHT22;7423;48.722;9.350;2023-07-28T09:00:56;21.40;99.90
14670;DHT22;7423;48.722;9.350;2023-07-28T09:03:28;21.40;99.90
14670;DHT22;7423;48.722;9.350;2023-07-28T09:06:00;21.40;99.90
14670;DHT22;7423;48.722;9.350;2023-07-28T09:08:30;21.40;99.90
14670;DHT22;7423;48.722;9.350;2023-07-28T09:11:02;21.40;99.90
14670;DHT22;7423;48.722;9.350;2023-07-28T09:13:36;21.50;99.90
14670;DHT22;7423;48.722;9.350;2023-07-28T09:16:05;21.50;99.90
14670;DHT22;7423;48.722;9.350;2023-07-28T09:18:32;21.50;99.90
14670;DHT22;7423;48.722;9.350;2023-07-28T09:20:59;21.50;99.90
14670;DHT22;7423;48.722;9.350;2023-07-28T09:23:29;21.60;99.90
14670;DHT22;7423;48.722;9.350;2023-07-28T09:26:01;21.60;99.90
14670;DHT22;7423;48.722;9.350;2023-07-28T09:28:40;21.70;99.90
14670;DHT22;7423;48.722;9.350;2023-07-28T09:31:08;21.70;99.90
14670;DHT22;7423;48.722;9.350;2023-07-28T09:33:37;21.80;99.90
14670;DHT22;7423;48.722;9.350;2023-07-28T09:36:11;21.90;99.90
14670;DHT22;7423;48.722;9.350;2023-07-28T09:38:40;21.90;99.90
14670;DHT22;7423;48.722;9.350;2023-07-28T09:41:09;21.90;99.90
14670;DHT22;7423;48.722;9.350;2023-07-28T09:43:37;22.10;99.90
14670;DHT22;7423;48.722;9.350;2023-07-28T09:46:06;22.10;99.90
14670;DHT22;7423;48.722;9.350;2023-07-28T09:48:37;22.10;99.90
14670;DHT22;7423;48.722;9.350;2023-07-28T09:51:12;22.10;99.90
14670;DHT22;7423;48.722;9.350;2023-07-28T09:53:48;22.10;99.90
14670;DHT22;7423;48.722;9.350;2023-07-28T09:56:16;22.30;99.90
14670;DHT22;7423;48.722;9.350;2023-07-28T09:58:49;22.40;99.90
14670;DHT22;7423;48.722;9.350;2023-07-28T10:01:17;22.50;99.90
14670;DHT22;7423;48.722;9.350;2023-07-28T10:03:45;22.60;99.90
14670;DHT22;7423;48.722;9.350;2023-07-28T10:06:12;22.60;99.90
14670;DHT22;7423;48.722;9.350;2023-07-28T10:08:40;22.60;99.90
14670;DHT22;7423;48.722;9.350;2023-07-28T10:11:07;22.60;99.90
14670;DHT22;7423;48.722;9.350;2023-07-28T10:13:44;22.70;99.90
14670;DHT22;7423;48.722;9.350;2023-07-28T10:16:16;22.80;99.90
14670;DHT22;7423;48.722;9.350;2023-07-28T10:19:01;22.90;99.90
14670;DHT22;7423;48.722;9.350;2023-07-28T10:21:30;22.80;99.90
14670;DHT22;7423;48.722;9.350;2023-07-28T10:23:58;22.90;99.90
14670;DHT22;7423;48.722;9.350;2023-07-28T10:26:38;22.90;99.90
14670;DHT22;7423;48.722;9.350;2023-07-28T10:29:12;22.90;99.90
14670;DHT22;7423;48.722;9.350;2023-07-28T10:31:50;23.00;99.90
14670;DHT22;7423;48.722;9.350;2023-07-28T10:34:18;23.00;99.90
14670;DHT22;7423;48.722;9.350;2023-07-28T10:36:45;23.00;99.90
14670;DHT22;7423;48.722;9.350;2023-07-28T10:39:14;23.10;99.90
14670;DHT22;7423;48.722;9.350;2023-07-28T10:42:06;23.10;99.90
14670;DHT22;7423;48.722;9.350;2023-07-28T10:44:35;23.10;99.90
14670;DHT22;7423;48.722;9.350;2023-07-28T10:47:07;23.20;99.90
14670;DHT22;7423;48.722;9.350;2023-07-28T10:49:36;23.10;99.90
14670;DHT22;7423;48.722;9.350;2023-07-28T10:52:03;23.20;99.90
14670;DHT22;7423;48.722;9.350;2023-07-28T10:54:31;23.30;99.90
14670;DHT22;7423;48.722;9.350;2023-07-28T10:57:02;23.20;99.90
14670;DHT22;7423;48.722;9.350;2023-07-28T10:59:31;23.20;99.90
14670;DHT22;7423;48.722;9.350;2023-07-28T11:01:59;23.20;99.90
14670;DHT22;7423;48.722;9.350;2023-07-28T11:04:25;23.20;99.90
14670;DHT22;7423;48.722;9.350;2023-07-28T11:06:52;23.30;99.90
14670;DHT22;7423;48.722;9.350;2023-07-28T11:09:22;23.30;99.90
14670;DHT22;7423;48.722;9.350;2023-07-28T11:11:52;23.30;99.90
14670;DHT22;7423;48.722;9.350;2023-07-28T11:14:19;23.40;99.90
14670;DHT22;7423;48.722;9.350;2023-07-28T11:16:47;23.40;99.90
14670;DHT22;7423;48.722;9.350;2023-07-28T11:19:15;23.50;99.90
14670;DHT22;7423;48.722;9.350;2023-07-28T11:21:44;23.40;99.90
14670;DHT22;7423;48.722;9.350;2023-07-28T11:24:11;23.50;99.90
14670;DHT22;7423;48.722;9.350;2023-07-28T11:26:39;23.50;99.90
14670;DHT22;7423;48.722;9.350;2023-07-28T11:29:07;23.60;99.90
14670;DHT22;7423;48.722;9.350;2023-07-28T11:31:34;23.60;99.90
14670;DHT22;7423;48.722;9.350;2023-07-28T11:34:01;23.60;99.90
14670;DHT22;7423;48.722;9.350;2023-07-28T11:36:30;23.60;99.90
14670;DHT22;7423;48.722;9.350;2023-07-28T11:38:59;23.70;99.90
14670;DHT22;7423;48.722;9.350;2023-07-28T11:41:27;23.70;99.90
14670;DHT22;7423;48.722;9.350;2023-07-28T11:43:54;23.70;99.90
14670;DHT22;7423;48.722;9.350;2023-07-28T11:46:39;23.80;99.90
14670;DHT22;7423;48.722;9.350;2023-07-28T11:49:18;23.80;99.90
14670;DHT22;7423;48.722;9.350;2023-07-28T11:51:52;23.80;99.90
14670;DHT22;7423;48.722;9.350;2023-07-28T11:54:25;23.90;99.90
14670;DHT22;7423;48.722;9.350;2023-07-28T11:56:55;23.90;99.90
14670;DHT22;7423;48.722;9.350;2023-07-28T11:59:23;23.80;99.90
14670;DHT22;7423;48.722;9.350;2023-07-28T12:02:01;23.80;99.90
14670;DHT22;7423;48.722;9.350;2023-07-28T12:04:36;23.80;99.90
14670;DHT22;7423;48.722;9.350;2023-07-28T12:07:15;23.80;99.90
14670;DHT22;7423;48.722;9.350;2023-07-28T12:12:13;23.80;99.90
14670;DHT22;7423;48.722;9.350;2023-07-28T12:14:50;23.80;99.90
14670;DHT22;7423;48.722;9.350;2023-07-28T12:17:37;23.90;99.90
14670;DHT22;7423;48.722;9.350;2023-07-28T12:20:09;23.90;99.90
14670;DHT22;7423;48.722;9.350;2023-07-28T12:22:44;23.90;99.90
14670;DHT22;7423;48.722;9.350;2023-07-28T12:25:12;24.00;99.90
14670;DHT22;7423;48.722;9.350;2023-07-28T12:27:39;23.90;99.90
14670;DHT22;7423;48.722;9.350;2023-07-28T12:30:07;23.90;99.90
14670;DHT22;7423;48.722;9.350;2023-07-28T12:32:43;23.80;99.90
14670;DHT22;7423;48.722;9.350;2023-07-28T12:35:29;23.80;99.90
14670;DHT22;7423;48.722;9.350;2023-07-28T12:38:02;23.80;99.90
14670;DHT22;7423;48.722;9.350;2023-07-28T12:40:51;23.80;99.90
14670;DHT22;7423;48.722;9.350;2023-07-28T12:43:21;23.80;99.90
14670;DHT22;7423;48.722;9.350;2023-07-28T12:45:52;23.80;99.90
14670;DHT22;7423;48.722;9.350;2023-07-28T12:48:22;23.80;99.90
14670;DHT22;7423;48.722;9.350;2023-07-28T12:50:49;23.70;99.90
14670;DHT22;7423;48.722;9.350;2023-07-28T12:53:29;23.80;99.90
14670;DHT22;7423;48.722;9.350;2023-07-28T12:55:56;23.80;99.90
14670;DHT22;7423;48.722;9.350;2023-07-28T12:58:26;23.80;99.90
14670;DHT22;7423;48.722;9.350;2023-07-28T13:00:55;23.80;99.90
14670;DHT22;7423;48.722;9.350;2023-07-28T13:03:27;23.80;99.90
14670;DHT22;7423;48.722;9.350;2023-07-28T13:05:54;23.80;99.90
14670;DHT22;7423;48.722;9.350;2023-07-28T13:08:21;23.80;99.90
14670;DHT22;7423;48.722;9.350;2023-07-28T13:11:08;23.80;99.90
14670;DHT22;7423;48.722;9.350;2023-07-28T13:13:37;23.80;99.90
14670;DHT22;7423;48.722;9.350;2023-07-28T13:16:06;23.80;99.90
14670;DHT22;7423;48.722;9.350;2023-07-28T13:18:36;23.80;99.90
14670;DHT22;7423;48.722;9.350;2023-07-28T13:21:03;23.70;99.90
14670;DHT22;7423;48.722;9.350;2023-07-28T13:23:30;23.80;99.90
14670;DHT22;7423;48.722;9.350;2023-07-28T13:25:57;23.70;99.90
14670;DHT22;7423;48.722;9.350;2023-07-28T13:28:24;23.70;99.90
14670;DHT22;7423;48.722;9.350;2023-07-28T13:30:52;23.60;99.90
14670;DHT22;7423;48.722;9.350;2023-07-28T13:33:18;23.70;99.90
14670;DHT22;7423;48.722;9.350;2023-07-28T13:35:45;23.70;99.90
14670;DHT22;7423;48.722;9.350;2023-07-28T13:38:12;23.70;99.90
14670;DHT22;7423;48.722;9.350;2023-07-28T13:40:39;23.70;99.90
14670;DHT22;7423;48.722;9.350;2023-07-28T13:43:06;23.70;99.90
14670;DHT22;7423;48.722;9.350;2023-07-28T13:45:33;23.70;99.90
14670;DHT22;7423;48.722;9.350;2023-07-28T13:48:00;23.80;99.90
14670;DHT22;7423;48.722;9.350;2023-07-28T13:50:27;23.80;99.90
14670;DHT22;7423;48.722;9.350;2023-07-28T13:52:57;23.80;99.90
14670;DHT22;7423;48.722;9.350;2023-07-28T13:55:24;23.70;99.90
14670;DHT22;7423;48.722;9.350;2023-07-28T13:57:54;23.80;99.90
14670;DHT22;7423;48.722;9.350;2023-07-28T14:00:21;23.70;99.90
14670;DHT22;7423;48.722;9.350;2023-07-28T14:02:48;23.70;99.90
14670;DHT22;7423;48.722;9.350;2023-07-28T14:05:15;23.70;99.90
14670;DHT22;7423;48.722;9.350;2023-07-28T14:07:42;23.60;99.90
14670;DHT22;7423;48.722;9.350;2023-07-28T14:10:10;23.70;99.90
14670;DHT22;7423;48.722;9.350;2023-07-28T14:12:37;23.60;99.90
14670;DHT22;7423;48.722;9.350;2023-07-28T14:15:05;23.50;99.90
14670;DHT22;7423;48.722;9.350;2023-07-28T14:17:34;23.50;99.90
14670;DHT22;7423;48.722;9.350;2023-07-28T14:20:01;23.40;99.90
14670;DHT22;7423;48.722;9.350;2023-07-28T14:22:28;23.40;99.90
14670;DHT22;7423;48.722;9.350;2023-07-28T14:24:54;23.40;99.90
14670;DHT22;7423;48.722;9.350;2023-07-28T14:27:21;23.40;99.90
14670;DHT22;7423;48.722;9.350;2023-07-28T14:29:48;23.40;99.90
14670;DHT22;7423;48.722;9.350;2023-07-28T14:32:15;23.30;99.90
14670;DHT22;7423;48.722;9.350;2023-07-28T14:34:42;23.30;99.90
14670;DHT22;7423;48.722;9.350;2023-07-28T14:37:09;23.30;99.90
14670;DHT22;7423;48.722;9.350;2023-07-28T14:39:36;23.30;99.90
14670;DHT22;7423;48.722;9.350;2023-07-28T14:42:03;23.30;99.90
14670;DHT22;7423;48.722;9.350;2023-07-28T14:44:30;23.30;99.90
14670;DHT22;7423;48.722;9.350;2023-07-28T14:46:57;23.30;99.90
14670;DHT22;7423;48.722;9.350;2023-07-28T14:49:24;23.30;99.90
14670;DHT22;7423;48.722;9.350;2023-07-28T14:51:55;23.20;99.90
14670;DHT22;7423;48.722;9.350;2023-07-28T14:54:21;23.30;99.90
14670;DHT22;7423;48.722;9.350;2023-07-28T14:56:48;23.40;99.90
14670;DHT22;7423;48.722;9.350;2023-07-28T14:59:15;23.40;99.90
14670;DHT22;7423;48.722;9.350;2023-07-28T15:01:43;23.30;99.90
14670;DHT22;7423;48.722;9.350;2023-07-28T15:04:10;23.30;99.90
14670;DHT22;7423;48.722;9.350;2023-07-28T15:06:40;23.30;99.90
14670;DHT22;7423;48.722;9.350;2023-07-28T15:09:10;23.30;99.90
14670;DHT22;7423;48.722;9.350;2023-07-28T15:11:37;23.20;99.90
14670;DHT22;7423;48.722;9.350;2023-07-28T15:14:04;23.20;99.90
14670;DHT22;7423;48.722;9.350;2023-07-28T15:16:32;23.20;99.90
14670;DHT22;7423;48.722;9.350;2023-07-28T15:18:59;23.20;99.90
14670;DHT22;7423;48.722;9.350;2023-07-28T15:21:25;23.20;99.90
14670;DHT22;7423;48.722;9.350;2023-07-28T15:23:54;23.20;99.90
14670;DHT22;7423;48.722;9.350;2023-07-28T15:26:22;23.20;99.90
14670;DHT22;7423;48.722;9.350;2023-07-28T15:28:49;23.20;99.90
14670;DHT22;7423;48.722;9.350;2023-07-28T15:31:15;23.10;99.90
14670;DHT22;7423;48.722;9.350;2023-07-28T15:33:42;23.20;99.90
14670;DHT22;7423;48.722;9.350;2023-07-28T15:36:10;23.20;99.90
14670;DHT22;7423;48.722;9.350;2023-07-28T15:38:37;23.20;99.90
14670;DHT22;7423;48.722;9.350;2023-07-28T15:41:03;23.10;99.90
14670;DHT22;7423;48.722;9.350;2023-07-28T15:43:30;23.10;99.90
14670;DHT22;7423;48.722;9.350;2023-07-28T15:45:57;23.10;99.90
14670;DHT22;7423;48.722;9.350;2023-07-28T15:48:24;23.10;99.90
14670;DHT22;7423;48.722;9.350;2023-07-28T15:50:51;23.10;99.90
14670;DHT22;7423;48.722;9.350;2023-07-28T15:53:18;23.10;99.90
14670;DHT22;7423;48.722;9.350;2023-07-28T15:55:45;23.20;99.90
14670;DHT22;7423;48.722;9.350;2023-07-28T15:58:12;23.10;99.90
14670;DHT22;7423;48.722;9.350;2023-07-28T16:00:39;23.10;99.90
14670;DHT22;7423;48.722;9.350;2023-07-28T16:03:09;23.10;99.90